sensor_id;sensor_type;location;lat;lon;timestamp;P1;durP1;ratioP1;P2;durP2;ratioP2
9236;SDS011;24579;42.810;23.214;2022-07-23T00:00:42;13.52;;;8.68;;
9236;SDS011;24579;42.810;23.214;2022-07-23T00:03:20;13.25;;;8.32;;
9236;SDS011;24579;42.810;23.214;2022-07-23T00:06:03;13.30;;;8.65;;
9236;SDS011;24579;42.810;23.214;2022-07-23T00:08:44;15.20;;;8.80;;
9236;SDS011;24579;42.810;23.214;2022-07-23T00:11:32;17.63;;;8.85;;
9236;SDS011;24579;42.810;23.214;2022-07-23T00:14:09;15.77;;;8.90;;
9236;SDS011;24579;42.810;23.214;2022-07-23T00:17:02;16.45;;;9.13;;
9236;SDS011;24579;42.810;23.214;2022-07-23T00:22:22;16.83;;;9.40;;
9236;SDS011;24579;42.810;23.214;2022-07-23T00:24:53;16.33;;;9.80;;
9236;SDS011;24579;42.810;23.214;2022-07-23T00:27:33;13.10;;;9.27;;
9236;SDS011;24579;42.810;23.214;2022-07-23T00:30:03;17.50;;;10.05;;
9236;SDS011;24579;42.810;23.214;2022-07-23T00:32:45;17.70;;;9.38;;
9236;SDS011;24579;42.810;23.214;2022-07-23T00:35:18;13.82;;;9.50;;
9236;SDS011;24579;42.810;23.214;2022-07-23T00:38:04;12.43;;;9.25;;
9236;SDS011;24579;42.810;23.214;2022-07-23T00:40:53;16.70;;;10.43;;
9236;SDS011;24579;42.810;23.214;2022-07-23T00:43:32;16.45;;;10.00;;
9236;SDS011;24579;42.810;23.214;2022-07-23T00:46:08;17.58;;;9.95;;
9236;SDS011;24579;42.810;23.214;2022-07-23T00:48:45;13.45;;;9.50;;
9236;SDS011;24579;42.810;23.214;2022-07-23T00:51:25;15.02;;;9.00;;
9236;SDS011;24579;42.810;23.214;2022-07-23T00:54:07;14.63;;;10.05;;
9236;SDS011;24579;42.810;23.214;2022-07-23T00:56:46;12.98;;;8.85;;
9236;SDS011;24579;42.810;23.214;2022-07-23T00:59:22;13.60;;;9.23;;
9236;SDS011;24579;42.810;23.214;2022-07-23T01:01:54;14.10;;;8.63;;
9236;SDS011;24579;42.810;23.214;2022-07-23T01:04:24;15.07;;;9.30;;
9236;SDS011;24579;42.810;23.214;2022-07-23T01:07:14;12.93;;;8.18;;
9236;SDS011;24579;42.810;23.214;2022-07-23T01:10:38;10.82;;;8.50;;
9236;SDS011;24579;42.810;23.214;2022-07-23T01:13:02;12.82;;;7.63;;
9236;SDS011;24579;42.810;23.214;2022-07-23T01:15:52;11.73;;;8.05;;
9236;SDS011;24579;42.810;23.214;2022-07-23T01:18:36;11.95;;;7.85;;
9236;SDS011;24579;42.810;23.214;2022-07-23T01:21:05;15.68;;;8.85;;
9236;SDS011;24579;42.810;23.214;2022-07-23T01:23:39;12.98;;;8.63;;
9236;SDS011;24579;42.810;23.214;2022-07-23T01:26:10;14.13;;;8.63;;
9236;SDS011;24579;42.810;23.214;2022-07-23T01:28:42;12.65;;;8.63;;
9236;SDS011;24579;42.810;23.214;2022-07-23T01:31:22;12.52;;;8.82;;
9236;SDS011;24579;42.810;23.214;2022-07-23T01:36:48;15.75;;;9.55;;
9236;SDS011;24579;42.810;23.214;2022-07-23T01:42:04;13.15;;;9.45;;
9236;SDS011;24579;42.810;23.214;2022-07-23T01:44:56;15.95;;;10.13;;
9236;SDS011;24579;42.810;23.214;2022-07-23T01:47:38;13.82;;;9.88;;
9236;SDS011;24579;42.810;23.214;2022-07-23T01:50:13;12.63;;;9.45;;
9236;SDS011;24579;42.810;23.214;2022-07-23T01:52:46;14.10;;;10.05;;
9236;SDS011;24579;42.810;23.214;2022-07-23T01:55:37;17.02;;;10.57;;
9236;SDS011;24579;42.810;23.214;2022-07-23T01:58:11;16.65;;;10.32;;
9236;SDS011;24579;42.810;23.214;2022-07-23T02:00:45;16.38;;;10.43;;
9236;SDS011;24579;42.810;23.214;2022-07-23T02:03:16;18.02;;;10.13;;
9236;SDS011;24579;42.810;23.214;2022-07-23T02:05:58;14.32;;;9.70;;
9236;SDS011;24579;42.810;23.214;2022-07-23T02:08:37;14.32;;;11.23;;
9236;SDS011;24579;42.810;23.214;2022-07-23T02:13:50;15.55;;;12.13;;
9236;SDS011;24579;42.810;23.214;2022-07-23T02:16:38;16.83;;;11.68;;
9236;SDS011;24579;42.810;23.214;2022-07-23T02:19:11;14.90;;;10.88;;
9236;SDS011;24579;42.810;23.214;2022-07-23T02:21:47;15.35;;;10.88;;
9236;SDS011;24579;42.810;23.214;2022-07-23T02:24:21;13.65;;;10.60;;
9236;SDS011;24579;42.810;23.214;2022-07-23T02:27:14;20.33;;;11.05;;
9236;SDS011;24579;42.810;23.214;2022-07-23T02:29:44;16.75;;;10.55;;
9236;SDS011;24579;42.810;23.214;2022-07-23T02:32:17;18.30;;;11.20;;
9236;SDS011;24579;42.810;23.214;2022-07-23T02:34:47;15.25;;;11.20;;
9236;SDS011;24579;42.810;23.214;2022-07-23T02:37:32;19.48;;;10.73;;
9236;SDS011;24579;42.810;23.214;2022-07-23T02:40:20;14.52;;;10.10;;
9236;SDS011;24579;42.810;23.214;2022-07-23T02:43:07;14.80;;;10.35;;
9236;SDS011;24579;42.810;23.214;2022-07-23T02:45:58;16.00;;;10.35;;
9236;SDS011;24579;42.810;23.214;2022-07-23T02:48:34;16.55;;;10.75;;
9236;SDS011;24579;42.810;23.214;2022-07-23T02:51:10;17.73;;;10.85;;
9236;SDS011;24579;42.810;23.214;2022-07-23T02:53:50;17.85;;;11.02;;
9236;SDS011;24579;42.810;23.214;2022-07-23T02:56:40;14.82;;;10.73;;
9236;SDS011;24579;42.810;23.214;2022-07-23T02:59:17;13.45;;;10.77;;
9236;SDS011;24579;42.810;23.214;2022-07-23T03:01:50;14.98;;;11.02;;
9236;SDS011;24579;42.810;23.214;2022-07-23T03:04:22;18.00;;;12.05;;
9236;SDS011;24579;42.810;23.214;2022-07-23T03:07:18;18.33;;;13.15;;
9236;SDS011;24579;42.810;23.214;2022-07-23T03:10:07;20.67;;;12.80;;
9236;SDS011;24579;42.810;23.214;2022-07-23T03:12:41;18.23;;;12.95;;
9236;SDS011;24579;42.810;23.214;2022-07-23T03:15:21;24.05;;;13.27;;
9236;SDS011;24579;42.810;23.214;2022-07-23T03:17:55;24.60;;;13.27;;
9236;SDS011;24579;42.810;23.214;2022-07-23T03:20:40;24.95;;;13.60;;
9236;SDS011;24579;42.810;23.214;2022-07-23T03:23:19;24.42;;;15.10;;
9236;SDS011;24579;42.810;23.214;2022-07-23T03:25:48;21.98;;;15.93;;
9236;SDS011;24579;42.810;23.214;2022-07-23T03:28:34;26.95;;;16.05;;
9236;SDS011;24579;42.810;23.214;2022-07-23T03:31:09;25.75;;;16.13;;
9236;SDS011;24579;42.810;23.214;2022-07-23T03:33:54;32.00;;;17.42;;
9236;SDS011;24579;42.810;23.214;2022-07-23T03:36:34;27.40;;;16.05;;
9236;SDS011;24579;42.810;23.214;2022-07-23T03:39:03;24.85;;;16.02;;
9236;SDS011;24579;42.810;23.214;2022-07-23T03:41:37;23.23;;;15.23;;
9236;SDS011;24579;42.810;23.214;2022-07-23T03:44:11;25.83;;;16.08;;
9236;SDS011;24579;42.810;23.214;2022-07-23T03:47:08;21.42;;;14.60;;
9236;SDS011;24579;42.810;23.214;2022-07-23T03:49:46;21.10;;;13.40;;
9236;SDS011;24579;42.810;23.214;2022-07-23T03:52:23;17.58;;;12.48;;
9236;SDS011;24579;42.810;23.214;2022-07-23T03:54:57;18.55;;;13.73;;
9236;SDS011;24579;42.810;23.214;2022-07-23T03:57:40;20.33;;;13.60;;
9236;SDS011;24579;42.810;23.214;2022-07-23T04:05:57;21.52;;;14.50;;
9236;SDS011;24579;42.810;23.214;2022-07-23T04:08:36;22.35;;;13.60;;
9236;SDS011;24579;42.810;23.214;2022-07-23T04:11:04;19.65;;;13.00;;
9236;SDS011;24579;42.810;23.214;2022-07-23T04:13:39;22.05;;;13.02;;
9236;SDS011;24579;42.810;23.214;2022-07-23T04:16:23;21.50;;;12.75;;
9236;SDS011;24579;42.810;23.214;2022-07-23T04:19:06;22.05;;;13.52;;
9236;SDS011;24579;42.810;23.214;2022-07-23T04:21:42;23.73;;;12.77;;
9236;SDS011;24579;42.810;23.214;2022-07-23T04:24:14;22.70;;;13.40;;
9236;SDS011;24579;42.810;23.214;2022-07-23T04:26:50;22.55;;;12.90;;
9236;SDS011;24579;42.810;23.214;2022-07-23T04:29:23;22.38;;;13.50;;
9236;SDS011;24579;42.810;23.214;2022-07-23T04:31:58;16.33;;;11.93;;
9236;SDS011;24579;42.810;23.214;2022-07-23T04:34:28;16.13;;;12.00;;
9236;SDS011;24579;42.810;23.214;2022-07-23T04:37:04;21.83;;;12.98;;
9236;SDS011;24579;42.810;23.214;2022-07-23T04:39:47;17.98;;;12.15;;
9236;SDS011;24579;42.810;23.214;2022-07-23T04:42:35;19.75;;;12.70;;
9236;SDS011;24579;42.810;23.214;2022-07-23T04:45:04;17.40;;;12.70;;
9236;SDS011;24579;42.810;23.214;2022-07-23T04:47:36;23.20;;;12.98;;
9236;SDS011;24579;42.810;23.214;2022-07-23T04:50:23;23.48;;;12.80;;
9236;SDS011;24579;42.810;23.214;2022-07-23T04:53:08;21.58;;;12.45;;
9236;SDS011;24579;42.810;23.214;2022-07-23T04:55:51;15.40;;;11.88;;
9236;SDS011;24579;42.810;23.214;2022-07-23T04:58:25;18.10;;;12.07;;
9236;SDS011;24579;42.810;23.214;2022-07-23T05:01:13;17.92;;;12.35;;
9236;SDS011;24579;42.810;23.214;2022-07-23T05:03:53;20.15;;;11.95;;
9236;SDS011;24579;42.810;23.214;2022-07-23T05:06:33;15.95;;;11.57;;
9236;SDS011;24579;42.810;23.214;2022-07-23T05:09:04;19.63;;;11.90;;
9236;SDS011;24579;42.810;23.214;2022-07-23T05:11:37;17.85;;;11.52;;
9236;SDS011;24579;42.810;23.214;2022-07-23T05:14:17;16.27;;;12.65;;
9236;SDS011;24579;42.810;23.214;2022-07-23T05:17:16;17.38;;;11.57;;
9236;SDS011;24579;42.810;23.214;2022-07-23T05:19:38;12.43;;;10.70;;
9236;SDS011;24579;42.810;23.214;2022-07-23T05:22:18;19.75;;;11.57;;
9236;SDS011;24579;42.810;23.214;2022-07-23T05:24:59;15.35;;;11.50;;
9236;SDS011;24579;42.810;23.214;2022-07-23T05:27:28;16.33;;;11.27;;
9236;SDS011;24579;42.810;23.214;2022-07-23T05:30:12;18.38;;;11.23;;
9236;SDS011;24579;42.810;23.214;2022-07-23T05:32:57;16.17;;;11.32;;
9236;SDS011;24579;42.810;23.214;2022-07-23T05:35:30;20.05;;;11.80;;
9236;SDS011;24579;42.810;23.214;2022-07-23T05:38:05;16.27;;;10.55;;
9236;SDS011;24579;42.810;23.214;2022-07-23T05:40:40;18.23;;;10.40;;
9236;SDS011;24579;42.810;23.214;2022-07-23T05:43:33;14.55;;;10.80;;
9236;SDS011;24579;42.810;23.214;2022-07-23T05:46:13;18.30;;;10.57;;
9236;SDS011;24579;42.810;23.214;2022-07-23T05:49:00;17.20;;;11.05;;
9236;SDS011;24579;42.810;23.214;2022-07-23T05:51:43;18.52;;;10.80;;
9236;SDS011;24579;42.810;23.214;2022-07-23T05:57:19;11.55;;;10.10;;
9236;SDS011;24579;42.810;23.214;2022-07-23T05:59:57;16.38;;;11.10;;
9236;SDS011;24579;42.810;23.214;2022-07-23T06:02:31;19.67;;;11.35;;
9236;SDS011;24579;42.810;23.214;2022-07-23T06:05:13;18.90;;;11.77;;
9236;SDS011;24579;42.810;23.214;2022-07-23T06:07:47;17.00;;;10.98;;
9236;SDS011;24579;42.810;23.214;2022-07-23T06:10:22;17.45;;;11.98;;
9236;SDS011;24579;42.810;23.214;2022-07-23T06:12:53;15.52;;;11.50;;
9236;SDS011;24579;42.810;23.214;2022-07-23T06:15:27;15.85;;;11.55;;
9236;SDS011;24579;42.810;23.214;2022-07-23T06:18:06;15.75;;;12.40;;
9236;SDS011;24579;42.810;23.214;2022-07-23T06:20:45;15.73;;;10.98;;
9236;SDS011;24579;42.810;23.214;2022-07-23T06:23:36;18.85;;;11.80;;
9236;SDS011;24579;42.810;23.214;2022-07-23T06:26:06;18.13;;;11.40;;
9236;SDS011;24579;42.810;23.214;2022-07-23T06:28:55;15.25;;;10.90;;
9236;SDS011;24579;42.810;23.214;2022-07-23T06:31:34;19.13;;;11.30;;
9236;SDS011;24579;42.810;23.214;2022-07-23T06:34:04;16.55;;;11.88;;
9236;SDS011;24579;42.810;23.214;2022-07-23T06:36:37;15.70;;;11.73;;
9236;SDS011;24579;42.810;23.214;2022-07-23T06:39:18;17.52;;;11.43;;
9236;SDS011;24579;42.810;23.214;2022-07-23T06:42:02;15.77;;;10.52;;
9236;SDS011;24579;42.810;23.214;2022-07-23T06:44:43;14.07;;;10.63;;
9236;SDS011;24579;42.810;23.214;2022-07-23T06:47:36;14.25;;;10.82;;
9236;SDS011;24579;42.810;23.214;2022-07-23T06:50:10;22.40;;;11.07;;
9236;SDS011;24579;42.810;23.214;2022-07-23T06:52:47;19.10;;;11.02;;
9236;SDS011;24579;42.810;23.214;2022-07-23T06:55:14;15.32;;;10.48;;
9236;SDS011;24579;42.810;23.214;2022-07-23T06:57:59;13.77;;;9.98;;
9236;SDS011;24579;42.810;23.214;2022-07-23T07:00:30;17.63;;;11.27;;
9236;SDS011;24579;42.810;23.214;2022-07-23T07:03:30;18.27;;;10.82;;
9236;SDS011;24579;42.810;23.214;2022-07-23T07:06:08;13.45;;;10.50;;
9236;SDS011;24579;42.810;23.214;2022-07-23T07:08:46;14.20;;;10.10;;
9236;SDS011;24579;42.810;23.214;2022-07-23T07:11:15;14.48;;;11.00;;
9236;SDS011;24579;42.810;23.214;2022-07-23T07:13:47;14.30;;;10.23;;
9236;SDS011;24579;42.810;23.214;2022-07-23T07:16:30;15.30;;;10.65;;
9236;SDS011;24579;42.810;23.214;2022-07-23T07:19:17;18.20;;;11.05;;
9236;SDS011;24579;42.810;23.214;2022-07-23T07:21:46;16.17;;;11.13;;
9236;SDS011;24579;42.810;23.214;2022-07-23T07:24:28;13.63;;;10.27;;
9236;SDS011;24579;42.810;23.214;2022-07-23T07:26:56;15.25;;;10.43;;
9236;SDS011;24579;42.810;23.214;2022-07-23T07:29:35;16.52;;;10.73;;
9236;SDS011;24579;42.810;23.214;2022-07-23T07:32:38;10.88;;;9.63;;
9236;SDS011;24579;42.810;23.214;2022-07-23T07:35:14;17.30;;;11.00;;
9236;SDS011;24579;42.810;23.214;2022-07-23T07:38:04;17.95;;;11.60;;
9236;SDS011;24579;42.810;23.214;2022-07-23T07:40:39;14.50;;;10.90;;
9236;SDS011;24579;42.810;23.214;2022-07-23T07:43:30;16.60;;;11.27;;
9236;SDS011;24579;42.810;23.214;2022-07-23T07:49:18;17.02;;;12.15;;
9236;SDS011;24579;42.810;23.214;2022-07-23T07:51:58;16.80;;;11.07;;
9236;SDS011;24579;42.810;23.214;2022-07-23T07:54:29;14.75;;;11.38;;
9236;SDS011;24579;42.810;23.214;2022-07-23T07:57:04;16.73;;;10.95;;
9236;SDS011;24579;42.810;23.214;2022-07-23T07:59:32;14.10;;;10.90;;
9236;SDS011;24579;42.810;23.214;2022-07-23T08:02:04;14.23;;;10.07;;
9236;SDS011;24579;42.810;23.214;2022-07-23T08:05:02;18.67;;;10.20;;
9236;SDS011;24579;42.810;23.214;2022-07-23T08:07:39;13.15;;;10.23;;
9236;SDS011;24579;42.810;23.214;2022-07-23T08:10:11;12.18;;;9.38;;
9236;SDS011;24579;42.810;23.214;2022-07-23T08:13:06;14.00;;;9.75;;
9236;SDS011;24579;42.810;23.214;2022-07-23T08:15:43;14.73;;;9.65;;
9236;SDS011;24579;42.810;23.214;2022-07-23T08:18:20;14.00;;;9.10;;
9236;SDS011;24579;42.810;23.214;2022-07-23T08:20:56;15.10;;;9.55;;
9236;SDS011;24579;42.810;23.214;2022-07-23T08:23:25;11.70;;;9.32;;
9236;SDS011;24579;42.810;23.214;2022-07-23T08:25:58;12.25;;;9.10;;
9236;SDS011;24579;42.810;23.214;2022-07-23T08:28:35;18.35;;;9.35;;
9236;SDS011;24579;42.810;23.214;2022-07-23T08:31:11;13.75;;;8.90;;
9236;SDS011;24579;42.810;23.214;2022-07-23T08:33:44;13.05;;;8.50;;
9236;SDS011;24579;42.810;23.214;2022-07-23T08:37:10;13.63;;;7.90;;
9236;SDS011;24579;42.810;23.214;2022-07-23T08:39:27;9.52;;;7.82;;
9236;SDS011;24579;42.810;23.214;2022-07-23T08:42:21;11.98;;;7.80;;
9236;SDS011;24579;42.810;23.214;2022-07-23T08:44:53;12.48;;;7.72;;
9236;SDS011;24579;42.810;23.214;2022-07-23T08:47:39;11.00;;;7.60;;
9236;SDS011;24579;42.810;23.214;2022-07-23T08:53:14;16.95;;;8.13;;
9236;SDS011;24579;42.810;23.214;2022-07-23T08:55:43;11.60;;;7.68;;
9236;SDS011;24579;42.810;23.214;2022-07-23T08:58:41;10.73;;;7.72;;
9236;SDS011;24579;42.810;23.214;2022-07-23T09:01:04;11.65;;;7.85;;
9236;SDS011;24579;42.810;23.214;2022-07-23T09:03:43;14.32;;;8.40;;
9236;SDS011;24579;42.810;23.214;2022-07-23T09:06:28;12.02;;;8.05;;
9236;SDS011;24579;42.810;23.214;2022-07-23T09:09:23;16.20;;;8.95;;
9236;SDS011;24579;42.810;23.214;2022-07-23T09:12:10;16.73;;;9.43;;
9236;SDS011;24579;42.810;23.214;2022-07-23T09:14:41;13.60;;;9.15;;
9236;SDS011;24579;42.810;23.214;2022-07-23T09:17:22;12.15;;;8.32;;
9236;SDS011;24579;42.810;23.214;2022-07-23T09:20:15;13.85;;;8.57;;
9236;SDS011;24579;42.810;23.214;2022-07-23T09:23:05;15.52;;;8.77;;
9236;SDS011;24579;42.810;23.214;2022-07-23T09:25:50;16.48;;;9.32;;
9236;SDS011;24579;42.810;23.214;2022-07-23T09:28:41;12.32;;;8.40;;
9236;SDS011;24579;42.810;23.214;2022-07-23T09:31:23;18.65;;;7.57;;
9236;SDS011;24579;42.810;23.214;2022-07-23T09:34:11;10.43;;;6.45;;
9236;SDS011;24579;42.810;23.214;2022-07-23T09:36:47;11.68;;;6.85;;
9236;SDS011;24579;42.810;23.214;2022-07-23T09:39:46;21.08;;;7.82;;
9236;SDS011;24579;42.810;23.214;2022-07-23T09:42:45;13.52;;;6.70;;
9236;SDS011;24579;42.810;23.214;2022-07-23T09:45:44;10.63;;;6.95;;
9236;SDS011;24579;42.810;23.214;2022-07-23T09:48:38;14.43;;;6.97;;
9236;SDS011;24579;42.810;23.214;2022-07-23T09:51:24;11.15;;;6.47;;
9236;SDS011;24579;42.810;23.214;2022-07-23T09:54:00;12.95;;;6.18;;
9236;SDS011;24579;42.810;23.214;2022-07-23T09:56:31;16.05;;;7.05;;
9236;SDS011;24579;42.810;23.214;2022-07-23T09:59:14;16.83;;;6.95;;
9236;SDS011;24579;42.810;23.214;2022-07-23T10:02:00;15.85;;;7.00;;
9236;SDS011;24579;42.810;23.214;2022-07-23T10:04:35;13.32;;;6.50;;
9236;SDS011;24579;42.810;23.214;2022-07-23T10:07:11;14.85;;;6.60;;
9236;SDS011;24579;42.810;23.214;2022-07-23T10:10:08;18.23;;;5.90;;
9236;SDS011;24579;42.810;23.214;2022-07-23T10:12:44;11.10;;;6.28;;
9236;SDS011;24579;42.810;23.214;2022-07-23T10:15:37;14.25;;;6.20;;
9236;SDS011;24579;42.810;23.214;2022-07-23T10:18:08;11.60;;;6.20;;
9236;SDS011;24579;42.810;23.214;2022-07-23T10:20:40;12.13;;;6.15;;
9236;SDS011;24579;42.810;23.214;2022-07-23T10:23:47;9.45;;;5.88;;
9236;SDS011;24579;42.810;23.214;2022-07-23T10:26:38;8.23;;;5.90;;
9236;SDS011;24579;42.810;23.214;2022-07-23T10:29:24;11.85;;;6.50;;
9236;SDS011;24579;42.810;23.214;2022-07-23T10:32:26;12.27;;;6.03;;
9236;SDS011;24579;42.810;23.214;2022-07-23T10:35:31;12.95;;;6.35;;
9236;SDS011;24579;42.810;23.214;2022-07-23T10:38:20;9.95;;;6.10;;
9236;SDS011;24579;42.810;23.214;2022-07-23T10:40:56;18.80;;;5.95;;
9236;SDS011;24579;42.810;23.214;2022-07-23T10:46:57;16.95;;;5.90;;
9236;SDS011;24579;42.810;23.214;2022-07-23T10:49:49;8.60;;;5.93;;
9236;SDS011;24579;42.810;23.214;2022-07-23T10:52:30;12.60;;;6.22;;
9236;SDS011;24579;42.810;23.214;2022-07-23T10:58:11;9.90;;;5.80;;
9236;SDS011;24579;42.810;23.214;2022-07-23T11:00:55;15.25;;;6.00;;
9236;SDS011;24579;42.810;23.214;2022-07-23T11:03:40;12.88;;;5.65;;
9236;SDS011;24579;42.810;23.214;2022-07-23T11:09:40;15.90;;;6.30;;
9236;SDS011;24579;42.810;23.214;2022-07-23T11:15:23;16.73;;;6.25;;
9236;SDS011;24579;42.810;23.214;2022-07-23T11:18:07;12.93;;;6.47;;
9236;SDS011;24579;42.810;23.214;2022-07-23T11:20:37;13.98;;;5.85;;
9236;SDS011;24579;42.810;23.214;2022-07-23T11:32:32;16.67;;;6.60;;
9236;SDS011;24579;42.810;23.214;2022-07-23T11:35:22;16.63;;;5.60;;
9236;SDS011;24579;42.810;23.214;2022-07-23T11:38:04;14.27;;;6.65;;
9236;SDS011;24579;42.810;23.214;2022-07-23T11:40:39;14.52;;;6.25;;
9236;SDS011;24579;42.810;23.214;2022-07-23T11:43:13;16.48;;;6.43;;
9236;SDS011;24579;42.810;23.214;2022-07-23T11:45:58;16.63;;;6.38;;
9236;SDS011;24579;42.810;23.214;2022-07-23T11:48:29;15.85;;;6.10;;
9236;SDS011;24579;42.810;23.214;2022-07-23T11:51:08;21.27;;;6.50;;
9236;SDS011;24579;42.810;23.214;2022-07-23T11:53:39;14.48;;;5.53;;
9236;SDS011;24579;42.810;23.214;2022-07-23T11:56:26;17.33;;;5.75;;
9236;SDS011;24579;42.810;23.214;2022-07-23T12:02:06;17.30;;;5.90;;
9236;SDS011;24579;42.810;23.214;2022-07-23T12:04:37;19.35;;;6.15;;
9236;SDS011;24579;42.810;23.214;2022-07-23T12:07:24;17.30;;;6.05;;
9236;SDS011;24579;42.810;23.214;2022-07-23T12:09:56;14.88;;;5.72;;
9236;SDS011;24579;42.810;23.214;2022-07-23T12:12:36;19.45;;;6.20;;
9236;SDS011;24579;42.810;23.214;2022-07-23T12:15:09;18.38;;;6.30;;
9236;SDS011;24579;42.810;23.214;2022-07-23T12:17:46;19.17;;;6.20;;
9236;SDS011;24579;42.810;23.214;2022-07-23T12:20:48;26.67;;;6.28;;
9236;SDS011;24579;42.810;23.214;2022-07-23T12:23:44;15.02;;;5.78;;
9236;SDS011;24579;42.810;23.214;2022-07-23T12:26:35;22.73;;;5.97;;
9236;SDS011;24579;42.810;23.214;2022-07-23T12:32:22;19.85;;;5.63;;
9236;SDS011;24579;42.810;23.214;2022-07-23T12:35:33;21.27;;;5.93;;
9236;SDS011;24579;42.810;23.214;2022-07-23T12:38:02;21.08;;;6.03;;
9236;SDS011;24579;42.810;23.214;2022-07-23T12:40:44;28.23;;;5.85;;
9236;SDS011;24579;42.810;23.214;2022-07-23T12:43:33;16.13;;;5.65;;
9236;SDS011;24579;42.810;23.214;2022-07-23T12:46:26;15.88;;;5.25;;
9236;SDS011;24579;42.810;23.214;2022-07-23T12:49:08;15.77;;;5.43;;
9236;SDS011;24579;42.810;23.214;2022-07-23T12:51:38;15.85;;;6.05;;
9236;SDS011;24579;42.810;23.214;2022-07-23T12:54:17;15.38;;;5.20;;
9236;SDS011;24579;42.810;23.214;2022-07-23T12:56:45;16.40;;;5.57;;
9236;SDS011;24579;42.810;23.214;2022-07-23T12:59:51;14.05;;;5.60;;
9236;SDS011;24579;42.810;23.214;2022-07-23T13:02:18;13.98;;;5.32;;
9236;SDS011;24579;42.810;23.214;2022-07-23T13:04:54;16.95;;;5.25;;
9236;SDS011;24579;42.810;23.214;2022-07-23T13:07:39;17.60;;;5.18;;
9236;SDS011;24579;42.810;23.214;2022-07-23T13:10:10;14.90;;;5.07;;
9236;SDS011;24579;42.810;23.214;2022-07-23T13:15:39;17.20;;;5.47;;
9236;SDS011;24579;42.810;23.214;2022-07-23T13:18:08;18.67;;;5.93;;
9236;SDS011;24579;42.810;23.214;2022-07-23T13:20:41;13.27;;;5.57;;
9236;SDS011;24579;42.810;23.214;2022-07-23T13:23:16;17.98;;;6.10;;
9236;SDS011;24579;42.810;23.214;2022-07-23T13:25:51;18.55;;;5.75;;
9236;SDS011;24579;42.810;23.214;2022-07-23T13:28:22;13.40;;;5.22;;
9236;SDS011;24579;42.810;23.214;2022-07-23T13:30:55;12.45;;;5.85;;
9236;SDS011;24579;42.810;23.214;2022-07-23T13:33:44;19.02;;;6.00;;
9236;SDS011;24579;42.810;23.214;2022-07-23T13:36:15;14.38;;;5.63;;
9236;SDS011;24579;42.810;23.214;2022-07-23T13:38:46;11.77;;;5.35;;
9236;SDS011;24579;42.810;23.214;2022-07-23T13:41:17;12.27;;;5.47;;
9236;SDS011;24579;42.810;23.214;2022-07-23T13:43:52;16.92;;;5.20;;
9236;SDS011;24579;42.810;23.214;2022-07-23T13:46:34;13.63;;;5.38;;
9236;SDS011;24579;42.810;23.214;2022-07-23T13:49:13;13.25;;;5.63;;
9236;SDS011;24579;42.810;23.214;2022-07-23T13:52:01;17.98;;;5.82;;
9236;SDS011;24579;42.810;23.214;2022-07-23T13:54:50;17.65;;;5.50;;
9236;SDS011;24579;42.810;23.214;2022-07-23T13:57:27;11.85;;;5.32;;
9236;SDS011;24579;42.810;23.214;2022-07-23T14:00:06;13.65;;;5.30;;
9236;SDS011;24579;42.810;23.214;2022-07-23T14:02:43;17.13;;;5.53;;
9236;SDS011;24579;42.810;23.214;2022-07-23T14:11:01;10.00;;;5.30;;
9236;SDS011;24579;42.810;23.214;2022-07-23T14:13:49;12.18;;;5.63;;
9236;SDS011;24579;42.810;23.214;2022-07-23T14:16:46;15.75;;;5.93;;
9236;SDS011;24579;42.810;23.214;2022-07-23T14:19:20;11.65;;;5.20;;
9236;SDS011;24579;42.810;23.214;2022-07-23T14:22:01;15.85;;;5.45;;
9236;SDS011;24579;42.810;23.214;2022-07-23T14:24:40;15.05;;;5.63;;
9236;SDS011;24579;42.810;23.214;2022-07-23T14:27:07;15.63;;;5.30;;
9236;SDS011;24579;42.810;23.214;2022-07-23T14:32:40;18.65;;;5.38;;
9236;SDS011;24579;42.810;23.214;2022-07-23T14:35:15;15.20;;;5.25;;
9236;SDS011;24579;42.810;23.214;2022-07-23T14:37:48;14.32;;;5.78;;
9236;SDS011;24579;42.810;23.214;2022-07-23T14:43:16;18.05;;;5.57;;
9236;SDS011;24579;42.810;23.214;2022-07-23T14:45:53;15.43;;;5.80;;
9236;SDS011;24579;42.810;23.214;2022-07-23T14:48:35;13.98;;;5.40;;
9236;SDS011;24579;42.810;23.214;2022-07-23T14:51:05;18.08;;;5.63;;
9236;SDS011;24579;42.810;23.214;2022-07-23T14:54:04;19.90;;;6.20;;
9236;SDS011;24579;42.810;23.214;2022-07-23T14:56:38;12.77;;;5.63;;
9236;SDS011;24579;42.810;23.214;2022-07-23T14:59:16;16.48;;;5.65;;
9236;SDS011;24579;42.810;23.214;2022-07-23T15:01:49;17.08;;;5.70;;
9236;SDS011;24579;42.810;23.214;2022-07-23T15:04:34;14.93;;;5.40;;
9236;SDS011;24579;42.810;23.214;2022-07-23T15:07:18;16.35;;;5.38;;
9236;SDS011;24579;42.810;23.214;2022-07-23T15:09:58;17.75;;;5.88;;
9236;SDS011;24579;42.810;23.214;2022-07-23T15:12:33;17.13;;;6.00;;
9236;SDS011;24579;42.810;23.214;2022-07-23T15:15:36;14.90;;;5.72;;
9236;SDS011;24579;42.810;23.214;2022-07-23T15:18:11;17.98;;;6.10;;
9236;SDS011;24579;42.810;23.214;2022-07-23T15:20:49;14.75;;;5.53;;
9236;SDS011;24579;42.810;23.214;2022-07-23T15:23:27;17.48;;;5.95;;
9236;SDS011;24579;42.810;23.214;2022-07-23T15:25:59;17.80;;;6.05;;
9236;SDS011;24579;42.810;23.214;2022-07-23T15:28:33;15.30;;;5.78;;
9236;SDS011;24579;42.810;23.214;2022-07-23T15:31:04;17.48;;;5.80;;
9236;SDS011;24579;42.810;23.214;2022-07-23T15:33:39;9.73;;;5.13;;
9236;SDS011;24579;42.810;23.214;2022-07-23T15:36:48;14.07;;;6.00;;
9236;SDS011;24579;42.810;23.214;2022-07-23T15:39:28;17.70;;;6.78;;
9236;SDS011;24579;42.810;23.214;2022-07-23T15:42:02;18.23;;;6.75;;
9236;SDS011;24579;42.810;23.214;2022-07-23T15:44:43;15.43;;;6.68;;
9236;SDS011;24579;42.810;23.214;2022-07-23T15:47:33;14.68;;;6.03;;
9236;SDS011;24579;42.810;23.214;2022-07-23T15:50:12;12.25;;;6.40;;
9236;SDS011;24579;42.810;23.214;2022-07-23T15:53:04;11.35;;;6.68;;
9236;SDS011;24579;42.810;23.214;2022-07-23T15:55:47;15.82;;;6.95;;
9236;SDS011;24579;42.810;23.214;2022-07-23T15:58:23;19.35;;;6.63;;
9236;SDS011;24579;42.810;23.214;2022-07-23T16:00:58;15.80;;;7.93;;
9236;SDS011;24579;42.810;23.214;2022-07-23T16:03:40;14.10;;;7.00;;
9236;SDS011;24579;42.810;23.214;2022-07-23T16:06:17;15.02;;;7.32;;
9236;SDS011;24579;42.810;23.214;2022-07-23T16:08:47;14.38;;;6.70;;
9236;SDS011;24579;42.810;23.214;2022-07-23T16:11:17;16.45;;;7.75;;
9236;SDS011;24579;42.810;23.214;2022-07-23T16:13:55;19.35;;;6.90;;
9236;SDS011;24579;42.810;23.214;2022-07-23T16:16:33;17.80;;;6.47;;
9236;SDS011;24579;42.810;23.214;2022-07-23T16:19:14;23.10;;;6.50;;
9236;SDS011;24579;42.810;23.214;2022-07-23T16:22:02;14.38;;;6.95;;
9236;SDS011;24579;42.810;23.214;2022-07-23T16:24:34;15.50;;;6.63;;
9236;SDS011;24579;42.810;23.214;2022-07-23T16:27:16;15.73;;;6.47;;
9236;SDS011;24579;42.810;23.214;2022-07-23T16:30:04;16.23;;;6.43;;
9236;SDS011;24579;42.810;23.214;2022-07-23T16:35:39;16.48;;;6.30;;
9236;SDS011;24579;42.810;23.214;2022-07-23T16:38:23;17.15;;;6.53;;
9236;SDS011;24579;42.810;23.214;2022-07-23T16:41:10;11.80;;;6.38;;
9236;SDS011;24579;42.810;23.214;2022-07-23T16:43:53;14.65;;;7.72;;
9236;SDS011;24579;42.810;23.214;2022-07-23T16:46:26;18.98;;;8.68;;
9236;SDS011;24579;42.810;23.214;2022-07-23T16:49:03;14.45;;;9.15;;
9236;SDS011;24579;42.810;23.214;2022-07-23T16:51:42;21.70;;;10.27;;
9236;SDS011;24579;42.810;23.214;2022-07-23T16:54:11;21.10;;;11.82;;